Time;durP1;ratioP1;P1;durP2;ratioP2;P2;SDS_P1;SDS_P2;PMS_P1;PMS_P2;Temp;Humidity;BMP_temperature;BMP_pressure;BME280_temperature;BME280_humidity;BME280_pressure;Samples;Min_cycle;Max_cycle;Signal;HPM_P1;HPM_P2
2024/02/13 00:00:06;;;;;;;8.50;3.40;;;4.90;98.00;;;;;;5056395;28;20449;-69
2024/02/13 00:02:33;;;;;;;10.50;3.20;;;4.90;98.00;;;;;;5073824;28;20854;-69
2024/02/13 00:05:00;;;;;;;6.90;2.70;;;4.90;98.00;;;;;;5073862;28;20578;-69
2024/02/13 00:07:30;;;;;;;6.97;3.00;;;4.90;98.00;;;;;;5073673;28;20459;-69
2024/02/13 00:09:57;;;;;;;6.87;2.90;;;4.90;98.00;;;;;;5074002;28;20552;-69
2024/02/13 00:12:24;;;;;;;7.07;2.80;;;5.00;98.00;;;;;;5073571;28;20451;-69
2024/02/13 00:14:56;;;;;;;6.40;2.63;;;5.00;98.00;;;;;;5056021;28;20459;-69
2024/02/13 00:17:24;;;;;;;12.03;3.17;;;5.10;98.00;;;;;;5073888;28;20958;-69
2024/02/13 00:19:52;;;;;;;4.47;2.97;;;5.10;98.00;;;;;;5073633;28;20454;-69
2024/02/13 00:22:19;;;;;;;7.17;2.77;;;5.00;98.00;;;;;;5073489;28;21003;-69
2024/02/13 00:24:50;;;;;;;6.87;2.90;;;5.10;98.00;;;;;;5073348;28;20486;-69
2024/02/13 00:27:17;;;;;;;7.27;2.77;;;5.00;98.00;;;;;;5073607;28;20456;-69
2024/02/13 00:29:45;;;;;;;7.50;3.20;;;5.00;98.00;;;;;;5073337;28;20457;-69
2024/02/13 00:32:13;;;;;;;8.33;3.20;;;4.90;98.00;;;;;;5055144;28;20451;-69
2024/02/13 00:34:42;;;;;;;9.50;3.23;;;4.90;98.00;;;;;;5073602;28;20457;-69
2024/02/13 00:37:10;;;;;;;6.60;3.40;;;4.70;98.00;;;;;;5073084;28;20440;-69
2024/02/13 00:39:40;;;;;;;6.27;3.47;;;4.50;98.00;;;;;;5073401;28;20537;-69
2024/02/13 00:42:07;;;;;;;8.23;4.17;;;4.40;98.00;;;;;;5072955;28;21035;-69
2024/02/13 00:44:38;;;;;;;8.80;3.80;;;4.50;98.00;;;;;;5073489;28;20484;-69
2024/02/13 00:47:07;;;;;;;14.33;4.47;;;4.60;98.00;;;;;;5073245;28;20479;-69
2024/02/13 00:49:35;;;;;;;9.23;4.03;;;4.40;98.00;;;;;;5073275;28;20456;-69
2024/02/13 00:52:02;;;;;;;9.70;4.40;;;4.40;98.00;;;;;;5072856;28;20714;-69
2024/02/13 00:54:30;;;;;;;12.00;4.80;;;4.40;98.00;;;;;;5073284;28;20799;-69
2024/02/13 00:56:57;;;;;;;9.90;4.40;;;4.40;98.00;;;;;;5072851;28;20456;-69
2024/02/13 00:59:25;;;;;;;8.87;4.27;;;4.50;98.00;;;;;;5073166;28;20948;-69
2024/02/13 01:01:52;;;;;;;9.60;4.23;;;4.40;98.00;;;;;;5072508;28;20482;-69
2024/02/13 01:04:21;;;;;;;8.40;3.93;;;4.50;98.00;;;;;;5072769;28;20481;-69
2024/02/13 01:06:50;;;;;;;7.00;3.60;;;4.50;98.00;;;;;;5072864;28;20465;-69
2024/02/13 01:09:18;;;;;;;8.33;3.87;;;4.60;98.00;;;;;;5072917;28;20449;-69
2024/02/13 01:11:45;;;;;;;5.50;3.40;;;4.60;98.00;;;;;;5054170;28;20804;-69
2024/02/13 01:14:13;;;;;;;6.33;3.40;;;4.70;98.00;;;;;;5054334;28;20514;-69
2024/02/13 01:16:40;;;;;;;6.73;3.40;;;4.60;98.00;;;;;;5072594;28;20448;-69
2024/02/13 01:19:07;;;;;;;8.63;3.83;;;4.80;98.00;;;;;;5072590;28;20479;-69
2024/02/13 01:21:34;;;;;;;7.70;3.30;;;4.90;98.00;;;;;;5072637;28;20452;-69
2024/02/13 01:24:04;;;;;;;10.50;3.77;;;4.90;98.00;;;;;;5072554;28;20834;-69
2024/02/13 01:26:31;;;;;;;10.93;4.73;;;5.00;98.00;;;;;;5072276;28;20943;-69
2024/02/13 01:29:00;;;;;;;7.80;3.87;;;4.90;98.00;;;;;;5071166;28;20889;-69
2024/02/13 01:31:27;;;;;;;10.47;4.00;;;5.00;98.00;;;;;;5071612;28;20457;-69
2024/02/13 01:33:54;;;;;;;9.23;3.80;;;5.00;98.00;;;;;;5054371;28;20807;-69
2024/02/13 01:36:21;;;;;;;6.40;3.37;;;5.10;98.00;;;;;;5071997;28;20579;-69
2024/02/13 01:38:48;;;;;;;8.73;3.43;;;5.10;98.00;;;;;;5072508;28;20460;-69
2024/02/13 01:41:16;;;;;;;6.10;3.50;;;5.10;98.00;;;;;;5072138;28;20826;-69
2024/02/13 01:43:45;;;;;;;8.73;3.20;;;5.10;98.00;;;;;;5072256;28;20588;-69
2024/02/13 01:46:14;;;;;;;7.77;4.20;;;5.10;98.00;;;;;;5072696;28;20977;-69
2024/02/13 01:48:42;;;;;;;7.67;3.83;;;5.00;98.00;;;;;;5072492;28;20471;-69
2024/02/13 01:51:12;;;;;;;7.80;3.60;;;5.00;98.00;;;;;;5072571;28;20449;-68
2024/02/13 01:53:40;;;;;;;4.47;2.90;;;5.10;98.00;;;;;;5072067;28;20449;-69
2024/02/13 01:56:08;;;;;;;5.17;3.03;;;5.10;98.00;;;;;;5071646;28;20452;-69
2024/02/13 01:58:38;;;;;;;11.30;3.37;;;5.10;98.00;;;;;;5072416;28;20461;-69
2024/02/13 02:01:06;;;;;;;6.37;2.73;;;5.10;98.00;;;;;;5072201;28;20462;-69
2024/02/13 02:03:35;;;;;;;6.40;2.83;;;5.10;98.00;;;;;;5072368;28;20793;-69
2024/02/13 02:06:03;;;;;;;4.00;2.60;;;5.10;98.00;;;;;;5072265;28;20456;-69
2024/02/13 02:08:30;;;;;;;5.30;2.80;;;5.10;98.00;;;;;;5071846;28;20478;-69
2024/02/13 02:10:57;;;;;;;4.47;2.57;;;5.20;98.00;;;;;;5072192;28;20453;-69
2024/02/13 02:13:27;;;;;;;5.60;2.70;;;5.30;98.00;;;;;;5072298;28;20623;-69
2024/02/13 02:15:55;;;;;;;7.33;2.80;;;5.40;98.00;;;;;;5071969;28;20510;-69
2024/02/13 02:18:24;;;;;;;9.57;2.50;;;5.50;98.00;;;;;;5072013;28;20454;-69
2024/02/13 02:20:51;;;;;;;4.93;2.50;;;5.50;98.00;;;;;;5072190;28;20950;-69
2024/02/13 02:23:19;;;;;;;4.63;2.30;;;5.60;98.00;;;;;;5071927;28;20454;-69
2024/02/13 02:25:47;;;;;;;5.80;2.50;;;5.70;98.00;;;;;;5071979;28;20518;-69
2024/02/13 02:28:15;;;;;;;5.30;2.53;;;5.80;98.00;;;;;;5072086;28;20453;-69
2024/02/13 02:30:44;;;;;;;5.80;2.97;;;5.80;98.00;;;;;;5072114;28;20482;-69
2024/02/13 02:33:12;;;;;;;5.10;2.87;;;5.90;98.00;;;;;;5071827;28;20542;-69
2024/02/13 02:35:40;;;;;;;6.90;3.20;;;5.80;98.00;;;;;;5071989;28;20823;-69
2024/02/13 02:38:09;;;;;;;6.43;2.97;;;6.00;98.00;;;;;;5054440;28;20543;-69
2024/02/13 02:40:37;;;;;;;7.90;3.20;;;6.00;98.00;;;;;;5071721;28;20480;-69
2024/02/13 02:43:07;;;;;;;5.17;2.97;;;6.00;98.00;;;;;;5071832;28;20928;-69
2024/02/13 02:45:35;;;;;;;5.53;2.43;;;6.00;98.00;;;;;;5071823;28;20486;-69
2024/02/13 02:48:02;;;;;;;4.40;2.10;;;6.00;98.00;;;;;;5071789;28;20918;-69
2024/02/13 02:50:29;;;;;;;6.23;2.27;;;5.80;98.00;;;;;;5071969;28;20450;-69
2024/02/13 02:52:56;;;;;;;3.37;2.10;;;5.70;98.00;;;;;;5072063;28;20450;-69
2024/02/13 02:55:24;;;;;;;3.80;1.93;;;5.70;98.00;;;;;;5071850;28;21031;-69
2024/02/13 02:57:52;;;;;;;3.27;2.00;;;5.70;98.00;;;;;;5071577;28;20459;-69
2024/02/13 03:00:21;;;;;;;4.30;2.27;;;5.80;98.00;;;;;;5071384;28;20465;-69
2024/02/13 03:02:48;;;;;;;9.63;3.50;;;5.90;98.00;;;;;;5071395;28;20466;-69
2024/02/13 03:05:16;;;;;;;8.77;4.00;;;6.00;98.00;;;;;;5072026;28;20850;-69
2024/02/13 03:07:45;;;;;;;7.23;4.20;;;6.00;98.00;;;;;;5075764;28;20478;-69
2024/02/13 03:10:13;;;;;;;9.60;4.30;;;6.00;98.00;;;;;;5075430;28;20460;-69
2024/02/13 03:12:40;;;;;;;9.43;4.33;;;6.00;98.00;;;;;;5058022;28;20502;-69
2024/02/13 03:15:14;;;;;;;10.13;4.27;;;5.90;98.00;;;;;;5075496;28;20997;-69
2024/02/13 03:17:45;;;;;;;7.17;4.00;;;5.90;98.00;;;;;;5075662;28;20466;-69
2024/02/13 03:20:12;;;;;;;9.97;4.70;;;5.90;98.00;;;;;;5075442;28;20450;-69
2024/02/13 03:22:39;;;;;;;9.60;4.10;;;5.90;98.00;;;;;;5075240;28;20455;-69
2024/02/13 03:25:07;;;;;;;8.03;4.00;;;5.80;98.00;;;;;;5075649;28;20485;-69
2024/02/13 03:27:34;;;;;;;7.60;4.00;;;5.70;98.00;;;;;;5075322;28;20451;-69
2024/02/13 03:30:02;;;;;;;7.40;4.07;;;5.70;98.00;;;;;;5075212;28;20955;-69
2024/02/13 03:32:29;;;;;;;11.23;4.50;;;5.70;98.00;;;;;;5074796;28;20501;-69
2024/02/13 03:34:57;;;;;;;8.37;4.57;;;5.80;98.00;;;;;;5057457;28;20452;-68
2024/02/13 03:37:24;;;;;;;8.90;4.10;;;5.90;98.00;;;;;;5075187;28;20442;-69
2024/02/13 03:39:51;;;;;;;8.77;4.10;;;5.90;98.00;;;;;;5075276;28;20449;-69
2024/02/13 03:42:19;;;;;;;10.00;4.03;;;5.80;98.00;;;;;;5074846;28;20458;-69
2024/02/13 03:44:46;;;;;;;7.80;3.47;;;5.80;98.00;;;;;;5074397;28;20483;-69
2024/02/13 03:47:13;;;;;;;7.03;3.70;;;5.70;98.00;;;;;;5075114;28;20535;-69
2024/02/13 03:49:40;;;;;;;6.70;3.50;;;5.70;98.00;;;;;;5074854;28;20444;-69
2024/02/13 03:52:09;;;;;;;7.97;3.17;;;5.70;98.00;;;;;;5074741;28;20450;-69
2024/02/13 03:54:36;;;;;;;5.23;3.13;;;5.80;98.00;;;;;;5074494;28;20546;-69
2024/02/13 03:57:05;;;;;;;4.93;2.80;;;5.80;98.00;;;;;;5074606;28;20446;-69
2024/02/13 03:59:32;;;;;;;8.70;3.03;;;5.80;98.00;;;;;;5074889;28;20457;-69
2024/02/13 04:01:59;;;;;;;8.13;3.37;;;5.80;98.00;;;;;;5074459;28;20455;-69
2024/02/13 04:04:26;;;;;;;6.33;3.47;;;5.90;98.00;;;;;;5074537;28;20475;-69
2024/02/13 04:06:53;;;;;;;6.43;3.37;;;6.10;98.00;;;;;;5074728;28;20452;-69
2024/02/13 04:09:22;;;;;;;6.37;3.50;;;6.10;98.00;;;;;;5074657;28;20814;-69
2024/02/13 04:11:50;;;;;;;7.70;3.60;;;6.00;98.00;;;;;;5074520;28;20510;-69
2024/02/13 04:14:18;;;;;;;5.53;3.00;;;6.00;98.00;;;;;;5074468;28;20819;-69
2024/02/13 04:16:45;;;;;;;7.73;3.73;;;6.10;98.00;;;;;;5073285;28;21088;-69
2024/02/13 04:19:13;;;;;;;11.00;3.90;;;6.20;98.00;;;;;;5074425;28;20448;-69
2024/02/13 04:21:44;;;;;;;5.10;3.30;;;6.10;98.00;;;;;;5074460;28;20800;-69
2024/02/13 04:24:11;;;;;;;7.13;4.07;;;6.10;98.00;;;;;;5056871;28;20447;-69
2024/02/13 04:26:43;;;;;;;8.27;3.90;;;6.20;98.00;;;;;;5074313;28;20528;-68
2024/02/13 04:29:10;;;;;;;9.17;4.10;;;6.30;98.00;;;;;;5074234;28;20450;-69
2024/02/13 04:31:37;;;;;;;11.10;4.23;;;6.20;98.00;;;;;;5074268;28;20447;-69
2024/02/13 04:34:05;;;;;;;7.87;4.23;;;6.20;98.00;;;;;;5056348;28;20459;-69
2024/02/13 04:36:33;;;;;;;9.50;4.40;;;6.10;98.00;;;;;;5074176;28;20493;-69
2024/02/13 04:39:00;;;;;;;9.83;4.10;;;5.80;98.00;;;;;;5074249;28;20869;-69
2024/02/13 04:41:27;;;;;;;12.83;4.47;;;5.80;98.00;;;;;;5056208;28;20463;-69
2024/02/13 04:43:57;;;;;;;7.20;4.10;;;5.90;98.00;;;;;;5073897;28;20455;-69
2024/02/13 04:46:24;;;;;;;8.30;4.13;;;5.70;98.00;;;;;;5074014;28;20487;-69
2024/02/13 04:48:52;;;;;;;8.43;4.10;;;5.60;98.00;;;;;;5074084;28;20532;-68
2024/02/13 04:51:19;;;;;;;11.43;4.00;;;5.60;98.00;;;;;;5073808;28;20483;-69
2024/02/13 04:53:46;;;;;;;7.70;4.13;;;5.50;98.00;;;;;;5074022;28;20468;-69
2024/02/13 04:56:15;;;;;;;9.27;4.33;;;5.50;98.00;;;;;;5073718;28;20455;-69
2024/02/13 04:58:43;;;;;;;6.60;4.00;;;5.50;98.00;;;;;;5073575;28;20464;-69
2024/02/13 05:01:14;;;;;;;8.17;3.80;;;5.50;98.00;;;;;;5073634;28;20509;-69
2024/02/13 05:07:19;;;;;;;11.33;4.03;;;5.50;98.00;;;;;;5073621;28;20481;-69
2024/02/13 05:09:17;;;;;;;8.53;4.20;;;5.50;98.00;;;;;;5073224;28;20807;-68
2024/02/13 05:11:44;;;;;;;9.80;4.57;;;5.60;98.00;;;;;;5073213;28;20485;-69
2024/02/13 05:14:14;;;;;;;9.03;4.37;;;5.70;98.00;;;;;;5073540;28;21256;-69
2024/02/13 05:16:43;;;;;;;8.37;3.87;;;5.70;98.00;;;;;;5056240;28;20454;-69
2024/02/13 05:19:10;;;;;;;8.87;4.30;;;5.80;98.00;;;;;;5073161;28;20479;-69
2024/02/13 05:21:39;;;;;;;8.53;4.13;;;5.80;98.00;;;;;;5072906;28;20449;-69
2024/02/13 05:24:06;;;;;;;6.30;3.70;;;5.90;98.00;;;;;;5073283;28;20870;-69
2024/02/13 05:26:35;;;;;;;8.10;4.00;;;5.90;98.00;;;;;;5073092;28;20489;-69
2024/02/13 05:29:03;;;;;;;8.03;4.00;;;5.90;98.00;;;;;;5072280;28;20450;-69
2024/02/13 05:31:30;;;;;;;7.30;3.80;;;5.70;98.00;;;;;;5072389;28;20448;-69
2024/02/13 05:33:59;;;;;;;8.20;3.93;;;5.60;98.00;;;;;;5071338;28;20902;-69
2024/02/13 05:36:27;;;;;;;9.10;3.90;;;5.60;98.00;;;;;;5072763;28;20444;-69
2024/02/13 05:38:54;;;;;;;5.50;3.37;;;5.60;98.00;;;;;;5055348;28;20557;-69
2024/02/13 05:41:21;;;;;;;8.73;3.73;;;5.60;98.00;;;;;;5072820;28;20457;-69
2024/02/13 05:43:48;;;;;;;7.13;3.33;;;5.70;98.00;;;;;;5054357;28;20460;-69
2024/02/13 05:46:17;;;;;;;6.10;3.53;;;5.70;98.00;;;;;;5072829;28;20519;-69
2024/02/13 05:48:45;;;;;;;6.87;3.40;;;5.70;98.00;;;;;;5072619;28;20450;-69
2024/02/13 05:51:15;;;;;;;7.60;3.60;;;5.80;98.00;;;;;;5072680;28;20481;-69
2024/02/13 05:53:43;;;;;;;7.80;3.30;;;5.80;98.00;;;;;;5072088;28;20581;-69
2024/02/13 05:56:11;;;;;;;10.43;3.80;;;5.70;98.00;;;;;;5072674;28;20768;-68
2024/02/13 05:58:39;;;;;;;13.80;3.20;;;5.70;98.00;;;;;;5055153;28;20477;-69
2024/02/13 06:01:12;;;;;;;5.57;3.23;;;5.70;98.00;;;;;;5054603;28;20462;-69
2024/02/13 06:03:39;;;;;;;7.33;3.37;;;5.60;98.00;;;;;;5072460;28;20479;-69
2024/02/13 06:06:07;;;;;;;6.67;3.30;;;5.60;98.00;;;;;;5053555;28;20478;-69
2024/02/13 06:08:35;;;;;;;7.73;3.10;;;5.50;98.00;;;;;;5072281;28;21133;-69
2024/02/13 06:11:04;;;;;;;5.80;3.03;;;5.50;98.00;;;;;;5072060;28;20581;-69
2024/02/13 06:13:33;;;;;;;7.63;3.23;;;5.40;98.00;;;;;;5054740;28;20482;-69
2024/02/13 06:16:02;;;;;;;5.60;3.20;;;5.50;98.00;;;;;;5072348;28;20471;-69
2024/02/13 06:18:29;;;;;;;6.40;3.17;;;5.60;98.00;;;;;;5054523;28;20488;-68
2024/02/13 06:20:56;;;;;;;7.70;2.90;;;5.60;98.00;;;;;;5072149;28;20452;-69
2024/02/13 06:23:23;;;;;;;3.90;2.57;;;5.60;98.00;;;;;;5072521;28;20530;-69
2024/02/13 06:25:52;;;;;;;14.07;5.17;;;5.60;98.00;;;;;;5072509;28;20486;-69
2024/02/13 06:28:19;;;;;;;14.97;5.87;;;5.60;98.00;;;;;;5072024;28;20459;-69
2024/02/13 06:30:46;;;;;;;8.37;4.57;;;5.60;98.00;;;;;;5072403;28;20930;-69
2024/02/13 06:33:17;;;;;;;8.17;4.40;;;5.60;98.00;;;;;;5072288;28;20890;-69
2024/02/13 06:35:44;;;;;;;8.70;3.80;;;5.60;98.00;;;;;;5071725;28;20524;-69
2024/02/13 06:38:11;;;;;;;4.17;2.67;;;5.60;98.00;;;;;;5072528;28;20451;-69
2024/02/13 06:40:38;;;;;;;8.40;3.17;;;5.60;98.00;;;;;;5071272;28;20963;-69
2024/02/13 06:43:06;;;;;;;4.90;3.00;;;5.90;98.00;;;;;;5072205;28;20454;-69
2024/02/13 06:45:34;;;;;;;5.57;3.17;;;5.90;98.00;;;;;;5072006;28;20501;-69
2024/02/13 06:48:01;;;;;;;8.57;3.17;;;5.90;98.00;;;;;;5071777;28;20466;-69
2024/02/13 06:50:29;;;;;;;4.57;2.53;;;5.90;98.00;;;;;;5054357;28;20478;-69
2024/02/13 06:52:56;;;;;;;9.60;3.93;;;6.00;98.00;;;;;;5037943;28;20929;-69
2024/02/13 06:55:23;;;;;;;10.43;3.73;;;6.20;98.00;;;;;;5071562;28;20965;-68
2024/02/13 06:57:51;;;;;;;6.77;3.60;;;6.30;98.00;;;;;;5070632;28;20949;-69
2024/02/13 07:00:20;;;;;;;6.53;3.40;;;6.10;98.00;;;;;;5071019;28;20456;-65
2024/02/13 07:02:48;;;;;;;5.73;3.60;;;6.10;98.00;;;;;;5071177;28;20524;-65
2024/02/13 07:05:15;;;;;;;6.17;3.23;;;6.00;98.00;;;;;;5071679;28;20539;-65
2024/02/13 07:07:42;;;;;;;5.23;3.13;;;6.00;98.00;;;;;;5071087;28;20451;-65
2024/02/13 07:10:11;;;;;;;5.53;3.20;;;6.00;98.00;;;;;;5071642;28;20450;-65
2024/02/13 07:12:38;;;;;;;7.90;3.33;;;6.00;98.00;;;;;;5071559;28;20458;-65
2024/02/13 07:15:07;;;;;;;5.20;3.03;;;6.00;98.00;;;;;;5071694;28;20463;-65
2024/02/13 07:17:37;;;;;;;6.27;3.20;;;6.00;98.00;;;;;;5053842;28;20484;-65
2024/02/13 07:20:05;;;;;;;5.87;3.10;;;6.00;98.00;;;;;;5071728;28;20457;-65
2024/02/13 07:22:32;;;;;;;4.67;2.60;;;6.10;98.00;;;;;;5071398;28;20453;-66
2024/02/13 07:24:59;;;;;;;6.20;3.13;;;6.30;98.00;;;;;;5071573;28;20484;-65
2024/02/13 07:27:28;;;;;;;5.10;2.90;;;6.50;98.00;;;;;;5071318;28;20528;-65
2024/02/13 07:29:55;;;;;;;13.47;3.30;;;6.60;98.00;;;;;;5069319;28;20534;-65
2024/02/13 07:32:23;;;;;;;9.93;3.23;;;6.60;98.00;;;;;;5071461;28;20458;-65
2024/02/13 07:34:53;;;;;;;7.13;3.00;;;6.60;98.00;;;;;;5071099;28;20457;-65
2024/02/13 07:37:20;;;;;;;5.77;2.97;;;6.70;98.00;;;;;;5053634;28;20453;-65
2024/02/13 07:39:47;;;;;;;5.37;2.40;;;6.70;98.00;;;;;;5071671;28;20474;-65
2024/02/13 07:42:15;;;;;;;10.03;3.00;;;6.70;98.00;;;;;;5071657;28;20451;-65
2024/02/13 07:44:42;;;;;;;5.13;2.50;;;6.90;98.00;;;;;;5053769;28;20538;-65
2024/02/13 07:47:12;;;;;;;4.50;2.60;;;7.10;98.00;;;;;;5071355;28;21031;-65
2024/02/13 07:49:39;;;;;;;5.63;2.77;;;7.20;98.00;;;;;;5071363;28;20450;-65
2024/02/13 07:52:12;;;;;;;3.47;2.23;;;7.30;98.00;;;;;;5072677;28;20460;-65
2024/02/13 07:54:39;;;;;;;4.30;2.23;;;7.20;98.00;;;;;;5075166;28;20448;-65
2024/02/13 07:57:06;;;;;;;3.10;2.30;;;7.10;98.00;;;;;;5074930;28;20546;-65
2024/02/13 07:59:33;;;;;;;4.10;2.60;;;7.00;98.00;;;;;;5057295;28;20772;-65
2024/02/13 08:02:00;;;;;;;4.43;2.27;;;6.90;98.00;;;;;;5056987;28;20467;-65
2024/02/13 08:04:27;;;;;;;4.30;2.20;;;6.80;98.00;;;;;;5075016;28;20446;-65
2024/02/13 08:06:56;;;;;;;3.27;2.07;;;6.80;98.00;;;;;;5074185;28;20705;-65
2024/02/13 08:09:24;;;;;;;4.73;2.50;;;6.90;98.00;;;;;;5074739;28;20452;-65
2024/02/13 08:11:53;;;;;;;4.73;2.20;;;6.90;98.00;;;;;;5073694;28;20461;-65
2024/02/13 08:14:22;;;;;;;4.30;2.20;;;6.90;98.00;;;;;;5074453;28;20451;-65
2024/02/13 08:16:49;;;;;;;9.00;2.63;;;6.90;98.00;;;;;;5074805;28;20529;-65
2024/02/13 08:19:16;;;;;;;3.03;2.17;;;7.00;98.00;;;;;;5074825;28;20461;-65
2024/02/13 08:21:43;;;;;;;6.07;2.70;;;7.20;98.00;;;;;;5074508;28;20496;-65
2024/02/13 08:24:10;;;;;;;5.40;2.10;;;7.20;98.00;;;;;;5074515;28;20455;-64
2024/02/13 08:26:38;;;;;;;3.30;1.97;;;7.40;98.00;;;;;;5074909;28;20479;-65
2024/02/13 08:29:06;;;;;;;3.63;2.20;;;7.30;98.00;;;;;;5074791;28;20452;-65
2024/02/13 08:31:33;;;;;;;6.50;2.80;;;7.30;98.00;;;;;;5074494;28;20451;-65
2024/02/13 08:34:02;;;;;;;3.10;2.27;;;7.40;98.00;;;;;;5074825;28;20813;-65
2024/02/13 08:36:29;;;;;;;3.67;2.10;;;7.50;98.00;;;;;;5074347;28;20542;-65
2024/02/13 08:38:56;;;;;;;5.40;2.27;;;7.50;98.00;;;;;;5074170;28;20459;-65
2024/02/13 08:41:26;;;;;;;4.47;2.10;;;7.50;98.00;;;;;;5074609;28;20821;-65
2024/02/13 08:43:55;;;;;;;6.90;2.00;;;7.60;98.00;;;;;;5073636;28;20449;-65
2024/02/13 08:46:23;;;;;;;5.90;2.00;;;7.60;98.00;;;;;;5073952;28;20494;-65
2024/02/13 08:48:51;;;;;;;4.97;2.03;;;7.60;98.00;;;;;;5040058;28;20502;-65
2024/02/13 08:51:19;;;;;;;5.87;2.13;;;7.60;98.00;;;;;;5074003;28;20480;-66
2024/02/13 08:53:46;;;;;;;3.83;1.90;;;7.60;98.00;;;;;;5073960;28;20491;-65
2024/02/13 08:56:13;;;;;;;7.77;2.27;;;7.70;98.00;;;;;;5056443;28;20457;-65
2024/02/13 08:58:41;;;;;;;3.90;2.10;;;7.80;98.00;;;;;;5073933;28;20456;-65
2024/02/13 09:01:10;;;;;;;3.17;2.00;;;7.90;98.00;;;;;;5073547;28;20460;-65
2024/02/13 09:03:37;;;;;;;3.03;2.20;;;8.00;98.00;;;;;;5072499;28;20457;-65
2024/02/13 09:06:05;;;;;;;3.63;2.10;;;8.10;98.00;;;;;;5073157;28;20476;-65
2024/02/13 09:08:34;;;;;;;3.83;2.23;;;8.20;98.00;;;;;;5055948;28;20491;-65
2024/02/13 09:11:01;;;;;;;4.87;2.20;;;8.20;98.00;;;;;;5073450;28;20542;-65
2024/02/13 09:13:29;;;;;;;4.70;2.27;;;8.10;98.00;;;;;;5055812;28;20460;-65
2024/02/13 09:15:58;;;;;;;2.67;2.00;;;8.20;98.00;;;;;;5064804;28;20535;-65
2024/02/13 09:18:27;;;;;;;6.47;2.23;;;8.20;98.00;;;;;;5073096;28;20460;-65
2024/02/13 09:20:54;;;;;;;5.20;2.40;;;8.20;98.00;;;;;;5073494;28;20463;-65
2024/02/13 09:23:24;;;;;;;3.53;1.87;;;8.30;98.00;;;;;;5055808;28;20461;-67
2024/02/13 09:25:51;;;;;;;3.27;2.00;;;8.40;98.00;;;;;;5072666;28;20548;-65
2024/02/13 09:28:18;;;;;;;3.43;2.27;;;8.60;98.00;;;;;;5073217;28;20568;-65
2024/02/13 09:30:47;;;;;;;4.33;2.50;;;8.70;98.00;;;;;;5072760;28;20938;-65
2024/02/13 09:33:16;;;;;;;4.13;2.30;;;8.60;98.00;;;;;;5072729;28;20488;-65
2024/02/13 09:35:45;;;;;;;3.20;2.30;;;8.70;98.00;;;;;;5073157;28;20481;-65
2024/02/13 09:38:12;;;;;;;7.27;2.20;;;8.90;98.00;;;;;;5072992;28;20453;-65
2024/02/13 09:40:41;;;;;;;3.73;2.00;;;9.10;98.00;;;;;;5055311;28;20494;-65
2024/02/13 09:43:09;;;;;;;5.53;2.20;;;9.30;98.00;;;;;;5072687;28;20469;-65
2024/02/13 09:45:39;;;;;;;5.03;2.87;;;9.20;98.00;;;;;;5072699;28;20528;-65
2024/02/13 09:48:18;;;;;;;4.70;2.10;;;9.40;98.00;;;;;;5072479;28;20490;-65
2024/02/13 09:50:50;;;;;;;7.13;2.13;;;9.40;98.00;;;;;;5072941;28;20465;-65
2024/02/13 09:53:21;;;;;;;6.30;2.30;;;9.30;98.00;;;;;;5072845;28;20462;-65
2024/02/13 09:55:54;;;;;;;3.47;2.00;;;9.30;98.00;;;;;;5072715;28;20453;-65
2024/02/13 09:58:22;;;;;;;3.70;2.00;;;9.40;98.00;;;;;;5072620;28;20453;-65
2024/02/13 10:00:56;;;;;;;4.03;1.70;;;9.40;98.00;;;;;;5072410;28;20860;-65
2024/02/13 10:03:23;;;;;;;4.23;2.80;;;9.50;98.00;;;;;;5072896;28;20817;-65
2024/02/13 10:05:52;;;;;;;3.70;2.10;;;9.80;98.00;;;;;;5072549;28;20449;-65
2024/02/13 10:08:22;;;;;;;6.17;2.40;;;10.00;98.00;;;;;;5072612;28;20489;-65
2024/02/13 10:11:00;;;;;;;3.73;2.40;;;10.10;98.00;;;;;;5072385;28;20482;-65
2024/02/13 10:13:31;;;;;;;4.00;2.10;;;10.10;98.00;;;;;;5072691;28;20998;-65
2024/02/13 10:15:58;;;;;;;4.07;2.27;;;9.90;98.00;;;;;;5072353;28;20448;-65
2024/02/13 10:18:26;;;;;;;6.80;2.43;;;9.80;98.00;;;;;;5072430;28;20452;-65
2024/02/13 10:20:55;;;;;;;3.97;2.20;;;9.70;98.00;;;;;;5072366;28;20497;-65
2024/02/13 10:23:24;;;;;;;3.33;2.10;;;9.60;98.00;;;;;;5072255;28;20460;-65
2024/02/13 10:25:53;;;;;;;4.60;2.20;;;9.80;98.00;;;;;;5071668;28;20449;-65
2024/02/13 10:28:24;;;;;;;3.03;2.20;;;9.80;98.00;;;;;;5071163;28;20486;-65
2024/02/13 10:30:52;;;;;;;5.80;2.10;;;9.90;98.00;;;;;;5054862;28;20869;-63
2024/02/13 10:33:20;;;;;;;3.10;1.90;;;9.90;98.00;;;;;;5072053;28;20448;-63
2024/02/13 10:35:52;;;;;;;3.70;2.00;;;10.00;98.00;;;;;;5053897;28;21135;-63
2024/02/13 10:38:28;;;;;;;5.30;2.17;;;10.20;98.00;;;;;;5071011;28;21193;-62
2024/02/13 10:40:57;;;;;;;2.53;2.00;;;10.40;98.00;;;;;;5051758;28;20486;-63
2024/02/13 10:43:27;;;;;;;2.53;1.87;;;10.40;98.00;;;;;;5061008;28;20450;-63
2024/02/13 10:45:57;;;;;;;3.03;1.80;;;10.60;98.00;;;;;;5071680;28;20799;-65
2024/02/13 10:48:34;;;;;;;2.60;1.87;;;10.70;98.00;;;;;;5071621;28;20553;-63
2024/02/13 10:51:02;;;;;;;8.40;1.87;;;10.80;98.00;;;;;;5071822;28;20460;-62
2024/02/13 10:53:34;;;;;;;1.83;1.60;;;11.10;98.00;;;;;;5071753;28;20455;-63
2024/02/13 10:56:03;;;;;;;4.47;2.13;;;11.80;98.00;;;;;;5071542;28;20460;-64
2024/02/13 10:58:31;;;;;;;6.10;2.00;;;12.40;98.00;;;;;;5057510;28;20546;-63
2024/02/13 11:01:00;;;;;;;2.77;1.90;;;12.90;98.00;;;;;;5071491;28;20832;-63
2024/02/13 11:03:28;;;;;;;5.30;2.10;;;13.10;98.00;;;;;;5071425;28;20455;-64
2024/02/13 11:05:55;;;;;;;5.23;1.90;;;13.60;98.00;;;;;;5071484;28;20984;-64
2024/02/13 11:08:23;;;;;;;3.30;2.10;;;14.10;98.00;;;;;;5071457;28;21129;-63
2024/02/13 11:11:09;;;;;;;5.80;2.10;;;14.60;98.00;;;;;;5070606;28;20455;-63
2024/02/13 11:13:37;;;;;;;5.80;2.37;;;14.90;98.00;;;;;;5051585;28;21007;-63
2024/02/13 11:16:05;;;;;;;4.70;2.30;;;14.40;98.00;;;;;;5034131;28;20471;-63
2024/02/13 11:18:34;;;;;;;4.03;2.37;;;13.80;98.00;;;;;;5051409;28;20461;-62
2024/02/13 11:21:02;;;;;;;3.20;2.10;;;13.80;98.00;;;;;;5050336;28;20513;-63
2024/02/13 11:23:29;;;;;;;3.23;2.10;;;13.60;98.00;;;;;;5051323;28;20483;-63
2024/02/13 11:26:00;;;;;;;4.60;2.20;;;13.10;98.00;;;;;;5051553;28;21113;-63
2024/02/13 11:28:33;;;;;;;4.07;2.40;;;13.00;98.00;;;;;;5054936;28;20483;-63
2024/02/13 11:31:00;;;;;;;3.90;2.33;;;12.70;98.00;;;;;;5055577;28;20483;-62
2024/02/13 11:33:28;;;;;;;2.83;2.17;;;12.50;98.00;;;;;;5055294;28;20992;-63
2024/02/13 11:35:56;;;;;;;3.23;2.37;;;12.30;98.00;;;;;;5055514;28;20842;-63
2024/02/13 11:38:27;;;;;;;4.70;2.00;;;12.20;98.00;;;;;;5055655;28;20810;-62
2024/02/13 11:40:55;;;;;;;5.10;2.70;;;12.00;98.00;;;;;;5055660;28;20456;-62
2024/02/13 11:43:28;;;;;;;4.63;2.50;;;11.80;98.00;;;;;;5055223;28;20446;-63
2024/02/13 11:45:58;;;;;;;3.77;2.20;;;11.80;98.00;;;;;;5055226;28;20514;-63
2024/02/13 11:48:26;;;;;;;3.13;2.13;;;11.70;98.00;;;;;;5055417;28;20925;-66
2024/02/13 11:50:55;;;;;;;5.47;2.50;;;11.70;98.00;;;;;;5055195;28;20453;-63
2024/02/13 11:53:23;;;;;;;3.20;2.20;;;11.70;98.00;;;;;;5054147;28;20881;-63
2024/02/13 11:55:50;;;;;;;2.67;2.07;;;11.50;98.00;;;;;;5055197;28;20452;-63
2024/02/13 11:58:19;;;;;;;4.13;2.10;;;11.30;98.00;;;;;;5054932;28;20500;-63
2024/02/13 12:01:00;;;;;;;2.73;2.10;;;11.30;98.00;;;;;;5055096;28;20493;-62
2024/02/13 12:03:27;;;;;;;4.57;2.03;;;11.40;98.00;;;;;;5055229;28;20447;-63
2024/02/13 12:05:55;;;;;;;2.97;2.10;;;11.50;98.00;;;;;;5053928;28;20457;-63
2024/02/13 12:08:24;;;;;;;5.53;2.20;;;11.50;98.00;;;;;;5054600;28;20580;-62
2024/02/13 12:11:01;;;;;;;4.30;2.20;;;11.60;98.00;;;;;;5054461;28;20481;-63
2024/02/13 12:13:30;;;;;;;4.30;2.10;;;11.40;98.00;;;;;;5054503;28;20460;-63
2024/02/13 12:15:59;;;;;;;3.37;2.13;;;11.30;98.00;;;;;;5054518;28;20458;-63
2024/02/13 12:18:29;;;;;;;4.17;2.67;;;11.20;98.00;;;;;;5054610;28;20916;-63
2024/02/13 12:20:56;;;;;;;4.20;2.20;;;11.20;98.00;;;;;;5053337;28;20455;-62
2024/02/13 12:23:23;;;;;;;1.83;1.60;;;11.30;98.00;;;;;;5054131;28;20459;-63
2024/02/13 12:26:00;;;;;;;1.93;1.60;;;11.40;98.00;;;;;;5053633;28;20445;-63
2024/02/13 12:28:28;;;;;;;4.93;1.63;;;11.30;98.00;;;;;;5053572;28;20539;-63
2024/02/13 12:30:55;;;;;;;2.90;1.90;;;11.30;98.00;;;;;;5054007;28;20465;-62
2024/02/13 12:33:24;;;;;;;5.20;1.80;;;11.30;98.00;;;;;;5054194;28;20888;-63
2024/02/13 12:36:01;;;;;;;1.90;1.70;;;11.40;98.00;;;;;;5053162;28;20507;-62
2024/02/13 12:38:29;;;;;;;3.33;1.90;;;11.50;98.00;;;;;;5053821;28;21025;-62
2024/02/13 12:40:57;;;;;;;4.57;1.90;;;11.70;98.00;;;;;;5054162;28;20470;-62
2024/02/13 12:43:27;;;;;;;2.20;1.63;;;11.90;98.00;;;;;;5054132;28;20442;-63
2024/02/13 12:45:55;;;;;;;2.83;1.70;;;11.90;98.00;;;;;;5054044;28;20451;-63
2024/02/13 12:48:26;;;;;;;4.10;2.00;;;11.70;98.00;;;;;;5053736;28;20510;-62
2024/02/13 12:50:53;;;;;;;3.13;2.00;;;11.50;98.00;;;;;;5054052;28;20484;-62
2024/02/13 12:53:21;;;;;;;13.30;2.20;;;11.60;98.00;;;;;;5053836;28;20452;-63
2024/02/13 12:55:49;;;;;;;2.33;1.80;;;11.60;98.00;;;;;;5053960;28;20530;-62
2024/02/13 12:58:18;;;;;;;2.50;1.80;;;12.30;98.00;;;;;;5053719;28;20493;-63
2024/02/13 13:00:47;;;;;;;4.50;2.20;;;12.70;98.00;;;;;;5053505;28;20465;-63
2024/02/13 13:03:14;;;;;;;4.10;1.90;;;13.50;98.00;;;;;;5053680;28;20456;-63